sensor_id;sensor_type;location;lat;lon;timestamp;pressure;altitude;pressure_sealevel;temperature
15360;BMP280;7779;49.596;11.070;2024-03-17T00:00:23;99026.66;;;10.01
15360;BMP280;7779;49.596;11.070;2024-03-17T00:02:49;99025.19;;;9.92
15360;BMP280;7779;49.596;11.070;2024-03-17T00:05:15;99039.63;;;9.84
15360;BMP280;7779;49.596;11.070;2024-03-17T00:07:41;99041.50;;;9.75
15360;BMP280;7779;49.596;11.070;2024-03-17T00:10:07;99032.50;;;9.66
15360;BMP280;7779;49.596;11.070;2024-03-17T00:12:34;99041.94;;;9.59
15360;BMP280;7779;49.596;11.070;2024-03-17T00:15:00;99040.53;;;9.51
15360;BMP280;7779;49.596;11.070;2024-03-17T00:17:26;99036.66;;;9.43
15360;BMP280;7779;49.596;11.070;2024-03-17T00:19:52;99036.97;;;9.36
15360;BMP280;7779;49.596;11.070;2024-03-17T00:22:17;99039.78;;;9.29
15360;BMP280;7779;49.596;11.070;2024-03-17T00:24:43;99042.59;;;9.22
15360;BMP280;7779;49.596;11.070;2024-03-17T00:27:10;99052.16;;;9.16
15360;BMP280;7779;49.596;11.070;2024-03-17T00:29:39;99050.00;;;9.09
15360;BMP280;7779;49.596;11.070;2024-03-17T00:32:06;99057.06;;;9.03
15360;BMP280;7779;49.596;11.070;2024-03-17T00:34:32;99054.97;;;8.98
15360;BMP280;7779;49.596;11.070;2024-03-17T00:36:58;99055.72;;;8.97
15360;BMP280;7779;49.596;11.070;2024-03-17T00:39:25;99056.38;;;8.95
15360;BMP280;7779;49.596;11.070;2024-03-17T00:41:51;99058.66;;;8.92
15360;BMP280;7779;49.596;11.070;2024-03-17T00:44:17;99058.53;;;8.90
15360;BMP280;7779;49.596;11.070;2024-03-17T00:46:42;99060.16;;;8.90
15360;BMP280;7779;49.596;11.070;2024-03-17T00:49:09;99059.19;;;8.88
15360;BMP280;7779;49.596;11.070;2024-03-17T00:51:36;99054.72;;;8.84
15360;BMP280;7779;49.596;11.070;2024-03-17T00:54:02;99058.22;;;8.86
15360;BMP280;7779;49.596;11.070;2024-03-17T00:56:27;99060.72;;;8.86
15360;BMP280;7779;49.596;11.070;2024-03-17T00:58:53;99059.94;;;8.87
15360;BMP280;7779;49.596;11.070;2024-03-17T01:01:19;99055.81;;;8.87
15360;BMP280;7779;49.596;11.070;2024-03-17T01:03:46;99049.94;;;8.87
15360;BMP280;7779;49.596;11.070;2024-03-17T01:06:12;99054.94;;;8.87
15360;BMP280;7779;49.596;11.070;2024-03-17T01:08:38;99054.84;;;8.85
15360;BMP280;7779;49.596;11.070;2024-03-17T01:11:03;99058.22;;;8.86
15360;BMP280;7779;49.596;11.070;2024-03-17T01:13:31;99049.50;;;8.81
15360;BMP280;7779;49.596;11.070;2024-03-17T01:15:59;99055.28;;;8.80
15360;BMP280;7779;49.596;11.070;2024-03-17T01:18:25;99049.25;;;8.78
15360;BMP280;7779;49.596;11.070;2024-03-17T01:20:51;99049.91;;;8.75
15360;BMP280;7779;49.596;11.070;2024-03-17T01:23:16;99048.94;;;8.73
15360;BMP280;7779;49.596;11.070;2024-03-17T01:25:42;99047.84;;;8.70
15360;BMP280;7779;49.596;11.070;2024-03-17T01:28:08;99051.00;;;8.67
15360;BMP280;7779;49.596;11.070;2024-03-17T01:30:34;99057.50;;;8.65
15360;BMP280;7779;49.596;11.070;2024-03-17T01:33:00;99050.75;;;8.64
15360;BMP280;7779;49.596;11.070;2024-03-17T01:35:26;99038.94;;;8.62
15360;BMP280;7779;49.596;11.070;2024-03-17T01:37:53;99032.19;;;8.61
15360;BMP280;7779;49.596;11.070;2024-03-17T01:40:18;99029.25;;;8.55
15360;BMP280;7779;49.596;11.070;2024-03-17T01:42:44;99036.19;;;8.59
15360;BMP280;7779;49.596;11.070;2024-03-17T01:45:30;99029.44;;;8.58
15360;BMP280;7779;49.596;11.070;2024-03-17T01:48:01;99030.09;;;8.56
15360;BMP280;7779;49.596;11.070;2024-03-17T01:50:35;99025.97;;;8.56
15360;BMP280;7779;49.596;11.070;2024-03-17T01:53:06;99020.13;;;8.56
15360;BMP280;7779;49.596;11.070;2024-03-17T01:55:38;99029.25;;;8.55
15360;BMP280;7779;49.596;11.070;2024-03-17T01:58:05;99028.38;;;8.55
15360;BMP280;7779;49.596;11.070;2024-03-17T02:00:36;99025.97;;;8.56
15360;BMP280;7779;49.596;11.070;2024-03-17T02:03:05;99015.97;;;8.56
15360;BMP280;7779;49.596;11.070;2024-03-17T02:05:32;99013.41;;;8.55
15360;BMP280;7779;49.596;11.070;2024-03-17T02:08:00;99009.88;;;8.53
15360;BMP280;7779;49.596;11.070;2024-03-17T02:10:26;99010.53;;;8.50
15360;BMP280;7779;49.596;11.070;2024-03-17T02:12:52;99018.78;;;8.49
15360;BMP280;7779;49.596;11.070;2024-03-17T02:15:19;99013.78;;;8.49
15360;BMP280;7779;49.596;11.070;2024-03-17T02:17:44;99013.03;;;8.50
15360;BMP280;7779;49.596;11.070;2024-03-17T02:20:10;99014.56;;;8.48
15360;BMP280;7779;49.596;11.070;2024-03-17T02:22:37;99005.44;;;8.49
15360;BMP280;7779;49.596;11.070;2024-03-17T02:25:03;99003.78;;;8.49
15360;BMP280;7779;49.596;11.070;2024-03-17T02:27:30;98997.94;;;8.49
15360;BMP280;7779;49.596;11.070;2024-03-17T02:29:55;98993.81;;;8.49
15360;BMP280;7779;49.596;11.070;2024-03-17T02:32:21;98995.56;;;8.50
15360;BMP280;7779;49.596;11.070;2024-03-17T02:34:52;98991.31;;;8.49
15360;BMP280;7779;49.596;11.070;2024-03-17T02:37:18;98992.09;;;8.48
15360;BMP280;7779;49.596;11.070;2024-03-17T02:39:43;98988.59;;;8.46
15360;BMP280;7779;49.596;11.070;2024-03-17T02:42:10;98986.00;;;8.45
15360;BMP280;7779;49.596;11.070;2024-03-17T02:44:38;98987.50;;;8.43
15360;BMP280;7779;49.596;11.070;2024-03-17T02:47:05;98981.41;;;8.39
15360;BMP280;7779;49.596;11.070;2024-03-17T02:49:32;98982.69;;;8.34
15360;BMP280;7779;49.596;11.070;2024-03-17T02:52:09;98984.75;;;8.28
15360;BMP280;7779;49.596;11.070;2024-03-17T02:54:36;98984.31;;;8.22
15360;BMP280;7779;49.596;11.070;2024-03-17T02:57:06;98985.56;;;8.18
15360;BMP280;7779;49.596;11.070;2024-03-17T02:59:34;98977.38;;;8.09
15360;BMP280;7779;49.596;11.070;2024-03-17T03:02:00;98987.09;;;8.06
15360;BMP280;7779;49.596;11.070;2024-03-17T03:04:27;98980.03;;;8.00
15360;BMP280;7779;49.596;11.070;2024-03-17T03:06:53;98979.47;;;7.93
15360;BMP280;7779;49.596;11.070;2024-03-17T03:09:19;98979.00;;;7.87
15360;BMP280;7779;49.596;11.070;2024-03-17T03:11:57;98980.06;;;7.79
15360;BMP280;7779;49.596;11.070;2024-03-17T03:14:22;98987.81;;;7.72
15360;BMP280;7779;49.596;11.070;2024-03-17T03:16:48;98993.22;;;7.67
15360;BMP280;7779;49.596;11.070;2024-03-17T03:19:16;99006.81;;;7.60
15360;BMP280;7779;49.596;11.070;2024-03-17T03:21:42;98992.91;;;7.52
15360;BMP280;7779;49.596;11.070;2024-03-17T03:24:07;99009.25;;;7.49
15360;BMP280;7779;49.596;11.070;2024-03-17T03:26:33;98999.81;;;7.45
15360;BMP280;7779;49.596;11.070;2024-03-17T03:28:59;99005.41;;;7.42
15360;BMP280;7779;49.596;11.070;2024-03-17T03:31:25;99004.16;;;7.38
15360;BMP280;7779;49.596;11.070;2024-03-17T03:33:50;99006.91;;;7.40
15360;BMP280;7779;49.596;11.070;2024-03-17T03:36:16;99011.88;;;7.40
15360;BMP280;7779;49.596;11.070;2024-03-17T03:38:46;99001.06;;;7.40
15360;BMP280;7779;49.596;11.070;2024-03-17T03:41:14;99010.25;;;7.41
15360;BMP280;7779;49.596;11.070;2024-03-17T03:43:40;99005.28;;;7.41
15360;BMP280;7779;49.596;11.070;2024-03-17T03:46:07;98998.44;;;7.38
15360;BMP280;7779;49.596;11.070;2024-03-17T03:48:34;99008.13;;;7.45
15360;BMP280;7779;49.596;11.070;2024-03-17T03:51:07;99005.00;;;7.48
15360;BMP280;7779;49.596;11.070;2024-03-17T03:53:34;99007.63;;;7.49
15360;BMP280;7779;49.596;11.070;2024-03-17T03:56:02;99004.41;;;7.50
15360;BMP280;7779;49.596;11.070;2024-03-17T03:58:35;99014.59;;;7.53
15360;BMP280;7779;49.596;11.070;2024-03-17T04:01:08;99002.13;;;7.53
15360;BMP280;7779;49.596;11.070;2024-03-17T04:03:35;99002.13;;;7.53
15360;BMP280;7779;49.596;11.070;2024-03-17T04:06:09;99004.00;;;7.56
15360;BMP280;7779;49.596;11.070;2024-03-17T04:08:37;99001.38;;;7.54
15360;BMP280;7779;49.596;11.070;2024-03-17T04:11:05;99008.34;;;7.58
15360;BMP280;7779;49.596;11.070;2024-03-17T04:13:31;99013.56;;;7.61
15360;BMP280;7779;49.596;11.070;2024-03-17T04:16:00;99012.06;;;7.63
15360;BMP280;7779;49.596;11.070;2024-03-17T04:18:27;99019.03;;;7.67
15360;BMP280;7779;49.596;11.070;2024-03-17T04:20:58;99008.19;;;7.67
15360;BMP280;7779;49.596;11.070;2024-03-17T04:23:24;99011.00;;;7.71
15360;BMP280;7779;49.596;11.070;2024-03-17T04:25:53;99015.47;;;7.75
15360;BMP280;7779;49.596;11.070;2024-03-17T04:28:19;99005.63;;;7.77
15360;BMP280;7779;49.596;11.070;2024-03-17T04:30:45;99011.47;;;7.77
15360;BMP280;7779;49.596;11.070;2024-03-17T04:33:12;99007.50;;;7.79
15360;BMP280;7779;49.596;11.070;2024-03-17T04:35:39;99010.09;;;7.80
15360;BMP280;7779;49.596;11.070;2024-03-17T04:38:05;99005.22;;;7.82
15360;BMP280;7779;49.596;11.070;2024-03-17T04:40:39;99014.59;;;7.84
15360;BMP280;7779;49.596;11.070;2024-03-17T04:43:06;98999.50;;;7.83
15360;BMP280;7779;49.596;11.070;2024-03-17T04:45:32;99002.44;;;7.89
15360;BMP280;7779;49.596;11.070;2024-03-17T04:47:58;99010.06;;;7.90
15360;BMP280;7779;49.596;11.070;2024-03-17T04:50:23;99000.94;;;7.91
15360;BMP280;7779;49.596;11.070;2024-03-17T04:52:49;99006.03;;;7.92
15360;BMP280;7779;49.596;11.070;2024-03-17T04:55:15;98997.91;;;7.95
15360;BMP280;7779;49.596;11.070;2024-03-17T04:57:44;99009.75;;;7.97
15360;BMP280;7779;49.596;11.070;2024-03-17T05:00:11;99004.13;;;8.00
15360;BMP280;7779;49.596;11.070;2024-03-17T05:02:38;99004.38;;;8.03
15360;BMP280;7779;49.596;11.070;2024-03-17T05:05:05;99006.34;;;8.07
15360;BMP280;7779;49.596;11.070;2024-03-17T05:07:32;98999.81;;;8.09
15360;BMP280;7779;49.596;11.070;2024-03-17T05:09:58;99005.19;;;8.13
15360;BMP280;7779;49.596;11.070;2024-03-17T05:12:23;99001.28;;;8.17
15360;BMP280;7779;49.596;11.070;2024-03-17T05:14:49;99004.16;;;8.21
15360;BMP280;7779;49.596;11.070;2024-03-17T05:17:15;99001.25;;;8.26
15360;BMP280;7779;49.596;11.070;2024-03-17T05:19:40;99000.69;;;8.30
15360;BMP280;7779;49.596;11.070;2024-03-17T05:22:07;99011.91;;;8.35
15360;BMP280;7779;49.596;11.070;2024-03-17T05:24:33;99013.88;;;8.39
15360;BMP280;7779;49.596;11.070;2024-03-17T05:26:58;99013.34;;;8.43
15360;BMP280;7779;49.596;11.070;2024-03-17T05:29:24;99017.06;;;8.48
15360;BMP280;7779;49.596;11.070;2024-03-17T05:31:50;99013.91;;;8.51
15360;BMP280;7779;49.596;11.070;2024-03-17T05:34:17;99019.25;;;8.55
15360;BMP280;7779;49.596;11.070;2024-03-17T05:36:43;99014.47;;;8.58
15360;BMP280;7779;49.596;11.070;2024-03-17T05:39:08;99022.97;;;8.60
15360;BMP280;7779;49.596;11.070;2024-03-17T05:41:34;99024.69;;;8.61
15360;BMP280;7779;49.596;11.070;2024-03-17T05:44:01;99027.31;;;8.62
15360;BMP280;7779;49.596;11.070;2024-03-17T05:46:29;99019.94;;;8.64
15360;BMP280;7779;49.596;11.070;2024-03-17T05:48:56;99032.63;;;8.67
15360;BMP280;7779;49.596;11.070;2024-03-17T05:51:22;99024.50;;;8.69
15360;BMP280;7779;49.596;11.070;2024-03-17T05:53:48;99027.13;;;8.71
15360;BMP280;7779;49.596;11.070;2024-03-17T05:56:14;99032.31;;;8.74
15360;BMP280;7779;49.596;11.070;2024-03-17T05:58:42;99029.06;;;8.75
15360;BMP280;7779;49.596;11.070;2024-03-17T06:01:07;99027.56;;;8.77
15360;BMP280;7779;49.596;11.070;2024-03-17T06:03:35;99027.78;;;8.80
15360;BMP280;7779;49.596;11.070;2024-03-17T06:06:04;99033.00;;;8.83
15360;BMP280;7779;49.596;11.070;2024-03-17T06:08:33;99023.22;;;8.86
15360;BMP280;7779;49.596;11.070;2024-03-17T06:10:59;99016.72;;;8.88
15360;BMP280;7779;49.596;11.070;2024-03-17T06:13:26;99030.19;;;8.90
15360;BMP280;7779;49.596;11.070;2024-03-17T06:15:52;99038.66;;;8.92
15360;BMP280;7779;49.596;11.070;2024-03-17T06:18:18;99027.25;;;8.95
15360;BMP280;7779;49.596;11.070;2024-03-17T06:20:46;99030.97;;;9.00
15360;BMP280;7779;49.596;11.070;2024-03-17T06:23:13;99023.03;;;9.05
15360;BMP280;7779;49.596;11.070;2024-03-17T06:25:46;99018.47;;;9.11
15360;BMP280;7779;49.596;11.070;2024-03-17T06:28:15;99015.41;;;9.15
15360;BMP280;7779;49.596;11.070;2024-03-17T06:33:11;99010.88;;;9.21
15360;BMP280;7779;49.596;11.070;2024-03-17T06:35:37;99014.78;;;9.29
15360;BMP280;7779;49.596;11.070;2024-03-17T06:38:03;99026.53;;;9.41
15360;BMP280;7779;49.596;11.070;2024-03-17T06:40:29;99017.16;;;9.50
15360;BMP280;7779;49.596;11.070;2024-03-17T06:42:56;99015.31;;;9.59
15360;BMP280;7779;49.596;11.070;2024-03-17T06:45:22;99009.19;;;9.67
15360;BMP280;7779;49.596;11.070;2024-03-17T06:47:48;99013.19;;;9.76
15360;BMP280;7779;49.596;11.070;2024-03-17T06:50:14;99008.81;;;9.85
15360;BMP280;7779;49.596;11.070;2024-03-17T06:52:40;99012.00;;;9.94
15360;BMP280;7779;49.596;11.070;2024-03-17T06:55:07;99010.13;;;10.03
15360;BMP280;7779;49.596;11.070;2024-03-17T06:57:33;99012.38;;;10.12
15360;BMP280;7779;49.596;11.070;2024-03-17T07:00:00;99012.03;;;10.18
15360;BMP280;7779;49.596;11.070;2024-03-17T07:02:26;99011.66;;;10.25
15360;BMP280;7779;49.596;11.070;2024-03-17T07:04:52;99010.56;;;10.33
15360;BMP280;7779;49.596;11.070;2024-03-17T07:07:17;99014.31;;;10.40
15360;BMP280;7779;49.596;11.070;2024-03-17T07:09:43;99004.72;;;10.46
15360;BMP280;7779;49.596;11.070;2024-03-17T07:12:10;98998.38;;;10.51
15360;BMP280;7779;49.596;11.070;2024-03-17T07:14:39;98997.03;;;10.55
15360;BMP280;7779;49.596;11.070;2024-03-17T07:17:04;99000.72;;;10.60
15360;BMP280;7779;49.596;11.070;2024-03-17T07:19:30;99004.69;;;10.70
15360;BMP280;7779;49.596;11.070;2024-03-17T07:21:57;99003.66;;;10.79
15360;BMP280;7779;49.596;11.070;2024-03-17T07:24:23;99001.25;;;10.81
15360;BMP280;7779;49.596;11.070;2024-03-17T07:26:49;99007.91;;;10.93
15360;BMP280;7779;49.596;11.070;2024-03-17T07:29:16;99010.91;;;11.00
15360;BMP280;7779;49.596;11.070;2024-03-17T07:31:42;99005.63;;;11.09
15360;BMP280;7779;49.596;11.070;2024-03-17T07:34:08;99000.31;;;11.17
15360;BMP280;7779;49.596;11.070;2024-03-17T07:36:34;99003.50;;;11.28
15360;BMP280;7779;49.596;11.070;2024-03-17T07:39:00;99005.75;;;11.36
15360;BMP280;7779;49.596;11.070;2024-03-17T07:41:27;98993.81;;;11.45
15360;BMP280;7779;49.596;11.070;2024-03-17T07:43:53;98996.78;;;11.52
15360;BMP280;7779;49.596;11.070;2024-03-17T07:46:18;98989.03;;;11.62
15360;BMP280;7779;49.596;11.070;2024-03-17T07:48:45;98997.94;;;11.70
15360;BMP280;7779;49.596;11.070;2024-03-17T07:51:14;98981.31;;;11.72
15360;BMP280;7779;49.596;11.070;2024-03-17T07:53:42;98981.28;;;11.85
15360;BMP280;7779;49.596;11.070;2024-03-17T07:56:10;98984.44;;;11.95
15360;BMP280;7779;49.596;11.070;2024-03-17T07:58:39;98980.66;;;12.02
15360;BMP280;7779;49.596;11.070;2024-03-17T08:01:12;98968.28;;;12.05
15360;BMP280;7779;49.596;11.070;2024-03-17T08:03:41;98974.72;;;12.14
15360;BMP280;7779;49.596;11.070;2024-03-17T08:06:08;98967.28;;;12.15
15360;BMP280;7779;49.596;11.070;2024-03-17T08:08:34;98974.50;;;12.24
15360;BMP280;7779;49.596;11.070;2024-03-17T08:11:00;98975.66;;;12.29
15360;BMP280;7779;49.596;11.070;2024-03-17T08:13:31;98981.88;;;12.35
15360;BMP280;7779;49.596;11.070;2024-03-17T08:16:06;98969.41;;;12.37
15360;BMP280;7779;49.596;11.070;2024-03-17T08:18:32;98963.53;;;12.36
15360;BMP280;7779;49.596;11.070;2024-03-17T08:21:01;98962.81;;;12.39
15360;BMP280;7779;49.596;11.070;2024-03-17T08:23:27;98963.88;;;12.42
15360;BMP280;7779;49.596;11.070;2024-03-17T08:25:58;98961.69;;;12.48
15360;BMP280;7779;49.596;11.070;2024-03-17T08:28:26;98954.53;;;12.54
15360;BMP280;7779;49.596;11.070;2024-03-17T08:30:59;98949.84;;;12.60
15360;BMP280;7779;49.596;11.070;2024-03-17T08:33:26;98946.13;;;12.68
15360;BMP280;7779;49.596;11.070;2024-03-17T08:36:02;98950.72;;;12.75
15360;BMP280;7779;49.596;11.070;2024-03-17T08:38:30;98951.09;;;12.81
15360;BMP280;7779;49.596;11.070;2024-03-17T08:41:01;98959.06;;;12.88
15360;BMP280;7779;49.596;11.070;2024-03-17T08:43:27;98952.84;;;12.96
15360;BMP280;7779;49.596;11.070;2024-03-17T08:45:56;98945.72;;;13.03
15360;BMP280;7779;49.596;11.070;2024-03-17T08:48:25;98937.72;;;13.10
15360;BMP280;7779;49.596;11.070;2024-03-17T08:50:52;98933.22;;;13.19
15360;BMP280;7779;49.596;11.070;2024-03-17T08:53:20;98938.56;;;13.25
15360;BMP280;7779;49.596;11.070;2024-03-17T08:55:45;98937.19;;;13.30
15360;BMP280;7779;49.596;11.070;2024-03-17T08:58:11;98939.16;;;13.35
15360;BMP280;7779;49.596;11.070;2024-03-17T09:00:37;98940.97;;;13.38
15360;BMP280;7779;49.596;11.070;2024-03-17T09:03:04;98933.50;;;13.39
15360;BMP280;7779;49.596;11.070;2024-03-17T09:05:32;98939.38;;;13.40
15360;BMP280;7779;49.596;11.070;2024-03-17T09:07:59;98937.81;;;13.42
15360;BMP280;7779;49.596;11.070;2024-03-17T09:10:24;98933.06;;;13.46
15360;BMP280;7779;49.596;11.070;2024-03-17T09:12:50;98935.81;;;13.51
15360;BMP280;7779;49.596;11.070;2024-03-17T09:15:16;98935.34;;;13.58
15360;BMP280;7779;49.596;11.070;2024-03-17T09:17:42;98936.56;;;13.64
15360;BMP280;7779;49.596;11.070;2024-03-17T09:20:11;98932.69;;;13.70
15360;BMP280;7779;49.596;11.070;2024-03-17T09:22:38;98936.50;;;13.78
15360;BMP280;7779;49.596;11.070;2024-03-17T09:25:08;98935.22;;;13.86
15360;BMP280;7779;49.596;11.070;2024-03-17T09:27:34;98932.44;;;13.96
15360;BMP280;7779;49.596;11.070;2024-03-17T09:30:06;98931.50;;;14.10
15360;BMP280;7779;49.596;11.070;2024-03-17T09:32:37;98927.94;;;14.22
15360;BMP280;7779;49.596;11.070;2024-03-17T09:35:04;98932.13;;;14.38
15360;BMP280;7779;49.596;11.070;2024-03-17T09:37:31;98919.41;;;14.52
15360;BMP280;7779;49.596;11.070;2024-03-17T09:39:57;98920.09;;;14.65
15360;BMP280;7779;49.596;11.070;2024-03-17T09:42:26;98918.31;;;14.80
15360;BMP280;7779;49.596;11.070;2024-03-17T09:44:53;98901.91;;;14.88
15360;BMP280;7779;49.596;11.070;2024-03-17T09:47:24;98902.34;;;14.97
15360;BMP280;7779;49.596;11.070;2024-03-17T09:49:51;98894.09;;;15.01
15360;BMP280;7779;49.596;11.070;2024-03-17T09:52:23;98894.22;;;15.04
15360;BMP280;7779;49.596;11.070;2024-03-17T09:55:16;98899.50;;;15.08
15360;BMP280;7779;49.596;11.070;2024-03-17T09:57:43;98894.66;;;15.13
15360;BMP280;7779;49.596;11.070;2024-03-17T10:00:13;98889.31;;;15.23
15360;BMP280;7779;49.596;11.070;2024-03-17T10:02:46;98895.81;;;15.36
15360;BMP280;7779;49.596;11.070;2024-03-17T10:05:24;98890.59;;;15.51
15360;BMP280;7779;49.596;11.070;2024-03-17T10:07:51;98890.41;;;15.63
15360;BMP280;7779;49.596;11.070;2024-03-17T10:10:20;98890.16;;;15.76
15360;BMP280;7779;49.596;11.070;2024-03-17T10:12:52;98891.56;;;15.89
15360;BMP280;7779;49.596;11.070;2024-03-17T10:15:19;98892.88;;;16.00
15360;BMP280;7779;49.596;11.070;2024-03-17T10:17:49;98895.91;;;16.11
15360;BMP280;7779;49.596;11.070;2024-03-17T10:20:24;98884.63;;;16.22
15360;BMP280;7779;49.596;11.070;2024-03-17T10:25:28;98886.56;;;16.48
15360;BMP280;7779;49.596;11.070;2024-03-17T10:27:56;98876.97;;;16.60
15360;BMP280;7779;49.596;11.070;2024-03-17T10:30:24;98870.63;;;16.69
15360;BMP280;7779;49.596;11.070;2024-03-17T10:32:59;98865.94;;;16.78
15360;BMP280;7779;49.596;11.070;2024-03-17T10:35:37;98858.53;;;16.82
15360;BMP280;7779;49.596;11.070;2024-03-17T10:38:06;98861.13;;;16.84
15360;BMP280;7779;49.596;11.070;2024-03-17T10:40:33;98852.72;;;16.85
15360;BMP280;7779;49.596;11.070;2024-03-17T10:43:01;98860.63;;;16.92
15360;BMP280;7779;49.596;11.070;2024-03-17T10:45:28;98870.88;;;16.95
15360;BMP280;7779;49.596;11.070;2024-03-17T10:48:02;98864.25;;;16.99
15360;BMP280;7779;49.596;11.070;2024-03-17T10:50:37;98867.03;;;17.05
15360;BMP280;7779;49.596;11.070;2024-03-17T10:53:07;98865.63;;;17.13
15360;BMP280;7779;49.596;11.070;2024-03-17T10:55:48;98861.84;;;17.22
15360;BMP280;7779;49.596;11.070;2024-03-17T10:58:23;98865.53;;;17.30
15360;BMP280;7779;49.596;11.070;2024-03-17T11:00:51;98852.28;;;17.37
15360;BMP280;7779;49.596;11.070;2024-03-17T11:03:19;98844.84;;;17.41
15360;BMP280;7779;49.596;11.070;2024-03-17T11:05:48;98834.06;;;17.45
15360;BMP280;7779;49.596;11.070;2024-03-17T11:08:17;98836.75;;;17.50
15360;BMP280;7779;49.596;11.070;2024-03-17T11:10:51;98841.00;;;17.51
15360;BMP280;7779;49.596;11.070;2024-03-17T11:13:28;98849.53;;;17.53
15360;BMP280;7779;49.596;11.070;2024-03-17T11:15:56;98847.91;;;17.55
15360;BMP280;7779;49.596;11.070;2024-03-17T11:21:20;98849.38;;;17.71
15360;BMP280;7779;49.596;11.070;2024-03-17T11:24:00;98858.09;;;17.78
15360;BMP280;7779;49.596;11.070;2024-03-17T11:26:32;98851.59;;;17.86
15360;BMP280;7779;49.596;11.070;2024-03-17T11:28:59;98845.81;;;17.90
15360;BMP280;7779;49.596;11.070;2024-03-17T11:31:40;98834.25;;;17.96
15360;BMP280;7779;49.596;11.070;2024-03-17T11:34:36;98836.84;;;17.99
15360;BMP280;7779;49.596;11.070;2024-03-17T11:37:05;98832.75;;;18.02
15360;BMP280;7779;49.596;11.070;2024-03-17T11:39:51;98824.50;;;18.08
15360;BMP280;7779;49.596;11.070;2024-03-17T11:42:24;98825.47;;;18.10
15360;BMP280;7779;49.596;11.070;2024-03-17T11:45:00;98815.38;;;18.11
15360;BMP280;7779;49.596;11.070;2024-03-17T11:47:46;98815.19;;;18.07
15360;BMP280;7779;49.596;11.070;2024-03-17T11:50:15;98810.81;;;18.03
15360;BMP280;7779;49.596;11.070;2024-03-17T11:52:40;98803.06;;;17.98
15360;BMP280;7779;49.596;11.070;2024-03-17T11:55:17;98813.03;;;17.94
15360;BMP280;7779;49.596;11.070;2024-03-17T11:57:44;98817.94;;;17.90
15360;BMP280;7779;49.596;11.070;2024-03-17T12:00:22;98813.53;;;17.84
15360;BMP280;7779;49.596;11.070;2024-03-17T12:02:49;98806.50;;;17.77
15360;BMP280;7779;49.596;11.070;2024-03-17T12:05:15;98799.72;;;17.76
15360;BMP280;7779;49.596;11.070;2024-03-17T12:07:44;98801.34;;;17.74
15360;BMP280;7779;49.596;11.070;2024-03-17T12:10:13;98794.53;;;17.73
15360;BMP280;7779;49.596;11.070;2024-03-17T12:12:40;98791.09;;;17.71
15360;BMP280;7779;49.596;11.070;2024-03-17T12:15:19;98783.34;;;17.67
15360;BMP280;7779;49.596;11.070;2024-03-17T12:17:46;98780.63;;;17.62
15360;BMP280;7779;49.596;11.070;2024-03-17T12:20:20;98785.59;;;17.60
15360;BMP280;7779;49.596;11.070;2024-03-17T12:22:47;98778.69;;;17.56
15360;BMP280;7779;49.596;11.070;2024-03-17T12:25:20;98773.53;;;17.53
15360;BMP280;7779;49.596;11.070;2024-03-17T12:27:47;98775.03;;;17.48
15360;BMP280;7779;49.596;11.070;2024-03-17T12:30:15;98764.78;;;17.45
15360;BMP280;7779;49.596;11.070;2024-03-17T12:32:41;98763.84;;;17.43
15360;BMP280;7779;49.596;11.070;2024-03-17T12:35:15;98772.28;;;17.42
15360;BMP280;7779;49.596;11.070;2024-03-17T12:37:45;98768.84;;;17.41
15360;BMP280;7779;49.596;11.070;2024-03-17T12:40:22;98773.06;;;17.41
15360;BMP280;7779;49.596;11.070;2024-03-17T12:42:50;98775.53;;;17.39
15360;BMP280;7779;49.596;11.070;2024-03-17T12:45:22;98769.75;;;17.42
15360;BMP280;7779;49.596;11.070;2024-03-17T12:47:50;98765.59;;;17.44
15360;BMP280;7779;49.596;11.070;2024-03-17T12:50:17;98759.00;;;17.49
15360;BMP280;7779;49.596;11.070;2024-03-17T12:52:56;98751.53;;;17.52
15360;BMP280;7779;49.596;11.070;2024-03-17T12:55:22;98743.16;;;17.54
15360;BMP280;7779;49.596;11.070;2024-03-17T12:58:08;98742.41;;;17.57
15360;BMP280;7779;49.596;11.070;2024-03-17T13:01:04;98739.13;;;17.59
15360;BMP280;7779;49.596;11.070;2024-03-17T13:03:37;98739.28;;;17.63
15360;BMP280;7779;49.596;11.070;2024-03-17T13:06:08;98735.19;;;17.67
15360;BMP280;7779;49.596;11.070;2024-03-17T13:08:35;98741.25;;;17.72
15360;BMP280;7779;49.596;11.070;2024-03-17T13:11:02;98725.16;;;17.70
15360;BMP280;7779;49.596;11.070;2024-03-17T13:13:35;98728.75;;;17.76
15360;BMP280;7779;49.596;11.070;2024-03-17T13:16:00;98725.41;;;17.77
15360;BMP280;7779;49.596;11.070;2024-03-17T13:18:26;98726.31;;;17.79
15360;BMP280;7779;49.596;11.070;2024-03-17T13:20:52;98724.72;;;17.81
15360;BMP280;7779;49.596;11.070;2024-03-17T13:23:23;98730.69;;;17.83
15360;BMP280;7779;49.596;11.070;2024-03-17T13:25:51;98736.63;;;17.84
15360;BMP280;7779;49.596;11.070;2024-03-17T13:28:17;98732.47;;;17.86
15360;BMP280;7779;49.596;11.070;2024-03-17T13:30:43;98725.03;;;17.90
15360;BMP280;7779;49.596;11.070;2024-03-17T13:33:10;98727.66;;;17.93
15360;BMP280;7779;49.596;11.070;2024-03-17T13:35:38;98727.75;;;17.96
15360;BMP280;7779;49.596;11.070;2024-03-17T13:38:06;98711.78;;;17.98
15360;BMP280;7779;49.596;11.070;2024-03-17T13:40:37;98709.41;;;18.03
15360;BMP280;7779;49.596;11.070;2024-03-17T13:43:04;98707.78;;;18.05
15360;BMP280;7779;49.596;11.070;2024-03-17T13:45:40;98717.16;;;18.07
15360;BMP280;7779;49.596;11.070;2024-03-17T13:48:06;98712.09;;;18.07
15360;BMP280;7779;49.596;11.070;2024-03-17T13:50:40;98718.88;;;18.08
15360;BMP280;7779;49.596;11.070;2024-03-17T13:53:10;98710.41;;;18.08
15360;BMP280;7779;49.596;11.070;2024-03-17T13:55:36;98706.16;;;18.07
15360;BMP280;7779;49.596;11.070;2024-03-17T13:58:03;98705.41;;;18.09
15360;BMP280;7779;49.596;11.070;2024-03-17T14:00:30;98702.13;;;18.12
15360;BMP280;7779;49.596;11.070;2024-03-17T14:02:57;98696.28;;;18.14
15360;BMP280;7779;49.596;11.070;2024-03-17T14:05:24;98687.91;;;18.17
15360;BMP280;7779;49.596;11.070;2024-03-17T14:07:53;98693.09;;;18.20
15360;BMP280;7779;49.596;11.070;2024-03-17T14:10:25;98688.13;;;18.23
15360;BMP280;7779;49.596;11.070;2024-03-17T14:12:52;98693.19;;;18.23
15360;BMP280;7779;49.596;11.070;2024-03-17T14:15:19;98696.41;;;18.19
15360;BMP280;7779;49.596;11.070;2024-03-17T14:17:46;98689.53;;;18.15
15360;BMP280;7779;49.596;11.070;2024-03-17T14:20:14;98689.47;;;18.12
15360;BMP280;7779;49.596;11.070;2024-03-17T14:22:44;98688.56;;;18.11
15360;BMP280;7779;49.596;11.070;2024-03-17T14:25:16;98686.94;;;18.13
15360;BMP280;7779;49.596;11.070;2024-03-17T14:27:46;98697.09;;;18.13